sensor_id;sensor_type;location;lat;lon;timestamp;temperature;humidity
51215;DHT22;63849;47.546;19.254;2023-02-28T00:00:30;-0.40;64.90
51215;DHT22;63849;47.546;19.254;2023-02-28T00:02:57;-0.40;65.30
51215;DHT22;63849;47.546;19.254;2023-02-28T00:05:24;-0.40;65.20
51215;DHT22;63849;47.546;19.254;2023-02-28T00:07:51;-0.20;64.80
51215;DHT22;63849;47.546;19.254;2023-02-28T00:10:21;-0.20;64.50
51215;DHT22;63849;47.546;19.254;2023-02-28T00:12:49;-0.10;64.20
51215;DHT22;63849;47.546;19.254;2023-02-28T00:15:16;-0.10;63.60
51215;DHT22;63849;47.546;19.254;2023-02-28T00:17:43;-0.10;64.30
51215;DHT22;63849;47.546;19.254;2023-02-28T00:20:10;-0.10;64.10
51215;DHT22;63849;47.546;19.254;2023-02-28T00:22:39;-0.10;64.30
51215;DHT22;63849;47.546;19.254;2023-02-28T00:25:06;-0.10;64.50
51215;DHT22;63849;47.546;19.254;2023-02-28T00:27:34;-0.10;64.40
51215;DHT22;63849;47.546;19.254;2023-02-28T00:30:01;-0.10;64.70
51215;DHT22;63849;47.546;19.254;2023-02-28T00:32:27;-0.10;64.00
51215;DHT22;63849;47.546;19.254;2023-02-28T00:34:56;0.00;63.40
51215;DHT22;63849;47.546;19.254;2023-02-28T00:37:22;0.00;63.70
51215;DHT22;63849;47.546;19.254;2023-02-28T00:39:48;-0.10;63.60
51215;DHT22;63849;47.546;19.254;2023-02-28T00:42:14;0.00;63.70
51215;DHT22;63849;47.546;19.254;2023-02-28T00:44:40;0.00;63.40
51215;DHT22;63849;47.546;19.254;2023-02-28T00:47:06;0.00;63.50
51215;DHT22;63849;47.546;19.254;2023-02-28T00:49:32;0.10;63.00
51215;DHT22;63849;47.546;19.254;2023-02-28T00:51:58;0.20;62.80
51215;DHT22;63849;47.546;19.254;2023-02-28T00:54:24;0.20;62.80
51215;DHT22;63849;47.546;19.254;2023-02-28T00:56:53;0.20;62.70
51215;DHT22;63849;47.546;19.254;2023-02-28T00:59:19;0.00;62.90
51215;DHT22;63849;47.546;19.254;2023-02-28T01:01:45;0.10;62.70
51215;DHT22;63849;47.546;19.254;2023-02-28T01:04:13;0.20;62.60
51215;DHT22;63849;47.546;19.254;2023-02-28T01:06:39;0.20;62.40
51215;DHT22;63849;47.546;19.254;2023-02-28T01:09:06;0.30;61.90
51215;DHT22;63849;47.546;19.254;2023-02-28T01:11:32;0.30;61.60
51215;DHT22;63849;47.546;19.254;2023-02-28T01:13:58;0.30;61.90
51215;DHT22;63849;47.546;19.254;2023-02-28T01:16:27;0.30;61.70
51215;DHT22;63849;47.546;19.254;2023-02-28T01:18:57;0.30;62.10
51215;DHT22;63849;47.546;19.254;2023-02-28T01:21:23;0.50;62.40
51215;DHT22;63849;47.546;19.254;2023-02-28T01:23:50;0.60;62.40
51215;DHT22;63849;47.546;19.254;2023-02-28T01:26:19;0.60;62.70
51215;DHT22;63849;47.546;19.254;2023-02-28T01:28:45;0.80;62.70
51215;DHT22;63849;47.546;19.254;2023-02-28T01:31:11;0.60;62.70
51215;DHT22;63849;47.546;19.254;2023-02-28T01:33:37;0.70;63.20
51215;DHT22;63849;47.546;19.254;2023-02-28T01:36:24;0.70;62.20
51215;DHT22;63849;47.546;19.254;2023-02-28T01:38:51;0.70;62.60
51215;DHT22;63849;47.546;19.254;2023-02-28T01:41:23;0.60;62.40
51215;DHT22;63849;47.546;19.254;2023-02-28T01:46:16;0.80;63.40
51215;DHT22;63849;47.546;19.254;2023-02-28T01:48:50;0.80;62.80
51215;DHT22;63849;47.546;19.254;2023-02-28T01:51:44;0.70;63.70
51215;DHT22;63849;47.546;19.254;2023-02-28T01:54:24;0.70;63.80
51215;DHT22;63849;47.546;19.254;2023-02-28T01:57:12;0.80;62.80
51215;DHT22;63849;47.546;19.254;2023-02-28T01:59:58;0.80;63.00
51215;DHT22;63849;47.546;19.254;2023-02-28T02:02:26;0.90;62.40
51215;DHT22;63849;47.546;19.254;2023-02-28T02:05:03;0.60;62.10
51215;DHT22;63849;47.546;19.254;2023-02-28T02:07:32;0.60;62.30
51215;DHT22;63849;47.546;19.254;2023-02-28T02:10:24;0.80;61.70
51215;DHT22;63849;47.546;19.254;2023-02-28T02:18:54;0.50;62.30
51215;DHT22;63849;47.546;19.254;2023-02-28T02:21:47;0.50;61.90
51215;DHT22;63849;47.546;19.254;2023-02-28T02:27:25;0.50;62.80
51215;DHT22;63849;47.546;19.254;2023-02-28T02:35:54;0.30;62.20
51215;DHT22;63849;47.546;19.254;2023-02-28T02:46:30;0.30;60.50
51215;DHT22;63849;47.546;19.254;2023-02-28T02:49:00;0.40;60.20
51215;DHT22;63849;47.546;19.254;2023-02-28T02:51:28;0.40;60.10
51215;DHT22;63849;47.546;19.254;2023-02-28T02:54:44;0.40;59.50
51215;DHT22;63849;47.546;19.254;2023-02-28T02:56:46;0.40;59.90
51215;DHT22;63849;47.546;19.254;2023-02-28T02:59:16;0.40;59.70
51215;DHT22;63849;47.546;19.254;2023-02-28T03:01:53;0.40;59.50
51215;DHT22;63849;47.546;19.254;2023-02-28T03:04:22;0.30;59.70
51215;DHT22;63849;47.546;19.254;2023-02-28T03:06:50;0.40;59.30
51215;DHT22;63849;47.546;19.254;2023-02-28T03:09:24;0.40;59.80
51215;DHT22;63849;47.546;19.254;2023-02-28T03:11:52;0.40;59.10
51215;DHT22;63849;47.546;19.254;2023-02-28T03:17:47;0.30;59.50
51215;DHT22;63849;47.546;19.254;2023-02-28T03:20:39;0.40;59.40
51215;DHT22;63849;47.546;19.254;2023-02-28T03:23:21;0.40;59.50
51215;DHT22;63849;47.546;19.254;2023-02-28T03:25:59;0.40;59.70
51215;DHT22;63849;47.546;19.254;2023-02-28T03:29:03;0.40;59.30
51215;DHT22;63849;47.546;19.254;2023-02-28T03:31:39;0.30;59.40
51215;DHT22;63849;47.546;19.254;2023-02-28T03:34:14;0.40;59.30
51215;DHT22;63849;47.546;19.254;2023-02-28T03:36:47;0.40;59.10
51215;DHT22;63849;47.546;19.254;2023-02-28T03:39:28;0.40;59.60
51215;DHT22;63849;47.546;19.254;2023-02-28T03:42:02;0.40;59.20
51215;DHT22;63849;47.546;19.254;2023-02-28T03:44:38;0.40;59.90
51215;DHT22;63849;47.546;19.254;2023-02-28T03:47:17;0.40;59.80
51215;DHT22;63849;47.546;19.254;2023-02-28T03:49:50;0.40;60.20
51215;DHT22;63849;47.546;19.254;2023-02-28T03:52:21;0.50;59.50
51215;DHT22;63849;47.546;19.254;2023-02-28T03:54:53;0.40;59.20
51215;DHT22;63849;47.546;19.254;2023-02-28T03:57:40;0.40;59.70
51215;DHT22;63849;47.546;19.254;2023-02-28T04:00:20;0.50;59.10
51215;DHT22;63849;47.546;19.254;2023-02-28T04:02:46;0.50;59.20
51215;DHT22;63849;47.546;19.254;2023-02-28T04:05:21;0.50;59.60
51215;DHT22;63849;47.546;19.254;2023-02-28T04:07:48;0.50;59.20
51215;DHT22;63849;47.546;19.254;2023-02-28T04:10:15;0.50;59.40
51215;DHT22;63849;47.546;19.254;2023-02-28T04:12:41;0.60;59.40
51215;DHT22;63849;47.546;19.254;2023-02-28T04:15:07;0.60;59.70
51215;DHT22;63849;47.546;19.254;2023-02-28T04:17:34;0.40;59.80
51215;DHT22;63849;47.546;19.254;2023-02-28T04:19:59;0.40;60.00
51215;DHT22;63849;47.546;19.254;2023-02-28T04:22:25;0.30;60.60
51215;DHT22;63849;47.546;19.254;2023-02-28T04:24:54;0.40;60.90
51215;DHT22;63849;47.546;19.254;2023-02-28T04:27:20;0.50;61.10
51215;DHT22;63849;47.546;19.254;2023-02-28T04:29:46;0.60;61.30
51215;DHT22;63849;47.546;19.254;2023-02-28T04:32:12;0.60;61.00
51215;DHT22;63849;47.546;19.254;2023-02-28T04:34:38;0.50;60.80
51215;DHT22;63849;47.546;19.254;2023-02-28T04:37:05;0.50;60.30
51215;DHT22;63849;47.546;19.254;2023-02-28T04:39:35;0.50;60.80
51215;DHT22;63849;47.546;19.254;2023-02-28T04:42:01;0.60;60.10
51215;DHT22;63849;47.546;19.254;2023-02-28T04:44:27;0.60;60.20
51215;DHT22;63849;47.546;19.254;2023-02-28T04:46:53;0.50;61.20
51215;DHT22;63849;47.546;19.254;2023-02-28T04:49:20;0.50;60.90
51215;DHT22;63849;47.546;19.254;2023-02-28T04:51:45;0.60;60.40
51215;DHT22;63849;47.546;19.254;2023-02-28T04:54:11;0.60;60.30
51215;DHT22;63849;47.546;19.254;2023-02-28T04:56:38;0.60;60.10
51215;DHT22;63849;47.546;19.254;2023-02-28T04:59:04;0.40;60.70
51215;DHT22;63849;47.546;19.254;2023-02-28T05:01:32;0.30;60.90
51215;DHT22;63849;47.546;19.254;2023-02-28T05:04:00;0.50;60.90
51215;DHT22;63849;47.546;19.254;2023-02-28T05:06:28;0.40;60.50
51215;DHT22;63849;47.546;19.254;2023-02-28T05:08:54;0.40;60.60
51215;DHT22;63849;47.546;19.254;2023-02-28T05:11:25;0.30;60.30
51215;DHT22;63849;47.546;19.254;2023-02-28T05:13:52;0.30;61.70
51215;DHT22;63849;47.546;19.254;2023-02-28T05:16:20;0.50;61.00
51215;DHT22;63849;47.546;19.254;2023-02-28T05:18:46;0.50;61.10
51215;DHT22;63849;47.546;19.254;2023-02-28T05:23:56;0.30;61.60
51215;DHT22;63849;47.546;19.254;2023-02-28T05:26:22;0.40;61.70
51215;DHT22;63849;47.546;19.254;2023-02-28T05:28:49;0.30;61.60
51215;DHT22;63849;47.546;19.254;2023-02-28T05:31:15;0.50;62.10
51215;DHT22;63849;47.546;19.254;2023-02-28T05:33:41;0.40;62.50
51215;DHT22;63849;47.546;19.254;2023-02-28T05:36:08;0.50;62.70
51215;DHT22;63849;47.546;19.254;2023-02-28T05:38:34;0.30;62.10
51215;DHT22;63849;47.546;19.254;2023-02-28T05:41:04;0.40;62.60
51215;DHT22;63849;47.546;19.254;2023-02-28T05:43:30;0.40;62.60
51215;DHT22;63849;47.546;19.254;2023-02-28T05:45:56;0.60;62.60
51215;DHT22;63849;47.546;19.254;2023-02-28T05:48:22;0.50;62.50
51215;DHT22;63849;47.546;19.254;2023-02-28T05:50:48;0.50;61.80
51215;DHT22;63849;47.546;19.254;2023-02-28T05:53:13;0.40;62.00
51215;DHT22;63849;47.546;19.254;2023-02-28T05:55:39;0.50;61.80
51215;DHT22;63849;47.546;19.254;2023-02-28T05:58:06;0.40;62.20
51215;DHT22;63849;47.546;19.254;2023-02-28T06:00:32;0.40;62.00
51215;DHT22;63849;47.546;19.254;2023-02-28T06:02:59;0.40;62.10
51215;DHT22;63849;47.546;19.254;2023-02-28T06:05:27;0.50;61.70
51215;DHT22;63849;47.546;19.254;2023-02-28T06:07:53;0.40;61.70
51215;DHT22;63849;47.546;19.254;2023-02-28T06:10:19;0.50;61.80
51215;DHT22;63849;47.546;19.254;2023-02-28T06:12:45;0.50;62.20
51215;DHT22;63849;47.546;19.254;2023-02-28T06:15:14;0.50;62.00
51215;DHT22;63849;47.546;19.254;2023-02-28T06:17:42;0.50;61.80
51215;DHT22;63849;47.546;19.254;2023-02-28T06:20:09;0.60;62.10
51215;DHT22;63849;47.546;19.254;2023-02-28T06:22:36;0.60;61.20
51215;DHT22;63849;47.546;19.254;2023-02-28T06:25:12;0.60;61.60
51215;DHT22;63849;47.546;19.254;2023-02-28T06:27:38;0.60;61.70
51215;DHT22;63849;47.546;19.254;2023-02-28T06:30:04;0.80;61.60
51215;DHT22;63849;47.546;19.254;2023-02-28T06:32:30;0.80;61.60
51215;DHT22;63849;47.546;19.254;2023-02-28T06:34:56;0.80;61.00
51215;DHT22;63849;47.546;19.254;2023-02-28T06:37:23;0.80;61.10
51215;DHT22;63849;47.546;19.254;2023-02-28T06:39:52;1.00;60.50
51215;DHT22;63849;47.546;19.254;2023-02-28T06:42:19;1.10;60.40
51215;DHT22;63849;47.546;19.254;2023-02-28T06:44:50;1.10;59.60
51215;DHT22;63849;47.546;19.254;2023-02-28T06:47:17;1.10;60.20
51215;DHT22;63849;47.546;19.254;2023-02-28T06:49:42;1.20;60.20
51215;DHT22;63849;47.546;19.254;2023-02-28T06:52:10;1.30;59.90
51215;DHT22;63849;47.546;19.254;2023-02-28T06:54:36;1.40;59.10
51215;DHT22;63849;47.546;19.254;2023-02-28T06:57:03;1.40;59.10
51215;DHT22;63849;47.546;19.254;2023-02-28T06:59:28;1.30;59.00
51215;DHT22;63849;47.546;19.254;2023-02-28T07:01:58;1.60;58.40
51215;DHT22;63849;47.546;19.254;2023-02-28T07:04:29;1.70;58.10
51215;DHT22;63849;47.546;19.254;2023-02-28T07:06:55;1.80;57.70
51215;DHT22;63849;47.546;19.254;2023-02-28T07:09:22;1.50;58.00
51215;DHT22;63849;47.546;19.254;2023-02-28T07:11:49;2.00;57.90
51215;DHT22;63849;47.546;19.254;2023-02-28T07:14:16;2.00;56.40
51215;DHT22;63849;47.546;19.254;2023-02-28T07:16:42;1.90;56.70
51215;DHT22;63849;47.546;19.254;2023-02-28T07:19:07;2.00;56.70
51215;DHT22;63849;47.546;19.254;2023-02-28T07:21:33;2.00;56.60
51215;DHT22;63849;47.546;19.254;2023-02-28T07:23:59;2.00;56.70
51215;DHT22;63849;47.546;19.254;2023-02-28T07:26:25;2.40;57.00
51215;DHT22;63849;47.546;19.254;2023-02-28T07:28:50;2.30;55.70
51215;DHT22;63849;47.546;19.254;2023-02-28T07:31:17;2.20;56.30
51215;DHT22;63849;47.546;19.254;2023-02-28T07:33:46;2.20;55.30
51215;DHT22;63849;47.546;19.254;2023-02-28T07:36:15;2.10;55.70
51215;DHT22;63849;47.546;19.254;2023-02-28T07:38:44;2.30;55.60
51215;DHT22;63849;47.546;19.254;2023-02-28T07:41:11;2.30;56.50
51215;DHT22;63849;47.546;19.254;2023-02-28T07:43:38;2.50;54.40
51215;DHT22;63849;47.546;19.254;2023-02-28T07:46:04;2.30;54.60
51215;DHT22;63849;47.546;19.254;2023-02-28T07:48:31;2.40;54.80
51215;DHT22;63849;47.546;19.254;2023-02-28T07:50:57;2.40;54.60
51215;DHT22;63849;47.546;19.254;2023-02-28T07:53:23;2.70;54.70
51215;DHT22;63849;47.546;19.254;2023-02-28T07:55:49;2.60;54.00
51215;DHT22;63849;47.546;19.254;2023-02-28T07:58:16;2.80;54.50
51215;DHT22;63849;47.546;19.254;2023-02-28T08:00:42;3.00;55.20
51215;DHT22;63849;47.546;19.254;2023-02-28T08:03:13;3.10;54.00
51215;DHT22;63849;47.546;19.254;2023-02-28T08:05:40;3.30;53.80
51215;DHT22;63849;47.546;19.254;2023-02-28T08:08:06;3.30;53.20
51215;DHT22;63849;47.546;19.254;2023-02-28T08:10:33;3.30;52.20
51215;DHT22;63849;47.546;19.254;2023-02-28T08:12:59;3.30;52.40
51215;DHT22;63849;47.546;19.254;2023-02-28T08:15:24;3.20;53.00
51215;DHT22;63849;47.546;19.254;2023-02-28T08:17:50;3.30;52.20
51215;DHT22;63849;47.546;19.254;2023-02-28T08:20:16;3.60;52.50
51215;DHT22;63849;47.546;19.254;2023-02-28T08:22:44;3.80;51.50
51215;DHT22;63849;47.546;19.254;2023-02-28T08:25:10;3.60;51.20
51215;DHT22;63849;47.546;19.254;2023-02-28T08:27:36;4.20;51.20
51215;DHT22;63849;47.546;19.254;2023-02-28T08:30:02;4.20;50.00
51215;DHT22;63849;47.546;19.254;2023-02-28T08:32:28;4.20;52.10
51215;DHT22;63849;47.546;19.254;2023-02-28T08:34:54;4.10;50.60
51215;DHT22;63849;47.546;19.254;2023-02-28T08:37:20;4.10;51.60
51215;DHT22;63849;47.546;19.254;2023-02-28T08:39:48;4.30;50.30
51215;DHT22;63849;47.546;19.254;2023-02-28T08:42:14;4.30;49.70
51215;DHT22;63849;47.546;19.254;2023-02-28T08:44:40;4.20;50.60
51215;DHT22;63849;47.546;19.254;2023-02-28T08:47:06;4.70;50.30
51215;DHT22;63849;47.546;19.254;2023-02-28T08:49:34;4.70;48.60
51215;DHT22;63849;47.546;19.254;2023-02-28T08:52:00;4.70;49.30
51215;DHT22;63849;47.546;19.254;2023-02-28T08:54:26;4.70;48.20
51215;DHT22;63849;47.546;19.254;2023-02-28T08:56:54;4.70;49.40
51215;DHT22;63849;47.546;19.254;2023-02-28T08:59:20;5.00;49.10
51215;DHT22;63849;47.546;19.254;2023-02-28T09:01:45;4.70;48.60
51215;DHT22;63849;47.546;19.254;2023-02-28T09:04:11;4.80;49.80
51215;DHT22;63849;47.546;19.254;2023-02-28T09:06:37;4.90;48.80
51215;DHT22;63849;47.546;19.254;2023-02-28T09:09:04;4.80;49.40
51215;DHT22;63849;47.546;19.254;2023-02-28T09:11:32;4.80;49.00
51215;DHT22;63849;47.546;19.254;2023-02-28T09:13:58;4.80;48.70
51215;DHT22;63849;47.546;19.254;2023-02-28T09:16:25;5.20;49.50
51215;DHT22;63849;47.546;19.254;2023-02-28T09:18:51;5.80;49.40
51215;DHT22;63849;47.546;19.254;2023-02-28T09:21:18;5.30;48.00
51215;DHT22;63849;47.546;19.254;2023-02-28T09:23:46;4.70;48.90
51215;DHT22;63849;47.546;19.254;2023-02-28T09:26:15;4.80;49.80
51215;DHT22;63849;47.546;19.254;2023-02-28T09:28:41;4.80;49.30
51215;DHT22;63849;47.546;19.254;2023-02-28T09:31:15;5.00;49.80
51215;DHT22;63849;47.546;19.254;2023-02-28T09:33:41;4.80;49.70
51215;DHT22;63849;47.546;19.254;2023-02-28T09:36:09;5.10;49.20
51215;DHT22;63849;47.546;19.254;2023-02-28T09:38:37;5.10;48.20
51215;DHT22;63849;47.546;19.254;2023-02-28T09:41:16;5.00;49.70
51215;DHT22;63849;47.546;19.254;2023-02-28T09:43:47;4.90;48.00
51215;DHT22;63849;47.546;19.254;2023-02-28T09:48:53;5.30;48.90
51215;DHT22;63849;47.546;19.254;2023-02-28T09:51:52;5.30;48.70
51215;DHT22;63849;47.546;19.254;2023-02-28T09:54:22;5.10;49.10
51215;DHT22;63849;47.546;19.254;2023-02-28T09:56:59;5.00;48.70
51215;DHT22;63849;47.546;19.254;2023-02-28T10:05:11;5.50;48.90
51215;DHT22;63849;47.546;19.254;2023-02-28T10:10:23;5.20;48.80
51215;DHT22;63849;47.546;19.254;2023-02-28T10:12:54;4.90;49.60
51215;DHT22;63849;47.546;19.254;2023-02-28T10:15:24;4.80;51.20
51215;DHT22;63849;47.546;19.254;2023-02-28T10:17:54;5.20;50.60
51215;DHT22;63849;47.546;19.254;2023-02-28T10:20:23;5.40;50.20
51215;DHT22;63849;47.546;19.254;2023-02-28T10:25:47;5.40;50.10
51215;DHT22;63849;47.546;19.254;2023-02-28T10:28:16;5.40;50.60
51215;DHT22;63849;47.546;19.254;2023-02-28T10:30:51;5.50;50.80
51215;DHT22;63849;47.546;19.254;2023-02-28T10:33:32;5.20;51.20
51215;DHT22;63849;47.546;19.254;2023-02-28T10:36:00;5.50;50.50
51215;DHT22;63849;47.546;19.254;2023-02-28T10:38:45;5.30;50.00
51215;DHT22;63849;47.546;19.254;2023-02-28T10:41:16;5.70;50.60
51215;DHT22;63849;47.546;19.254;2023-02-28T10:43:43;5.50;50.00
51215;DHT22;63849;47.546;19.254;2023-02-28T10:46:13;5.70;50.60
51215;DHT22;63849;47.546;19.254;2023-02-28T10:49:28;6.10;49.60
51215;DHT22;63849;47.546;19.254;2023-02-28T10:52:01;5.80;50.00
51215;DHT22;63849;47.546;19.254;2023-02-28T10:54:34;6.20;50.60
51215;DHT22;63849;47.546;19.254;2023-02-28T10:57:20;6.20;50.10
51215;DHT22;63849;47.546;19.254;2023-02-28T10:59:46;6.10;49.20
51215;DHT22;63849;47.546;19.254;2023-02-28T11:04:59;6.40;48.80
51215;DHT22;63849;47.546;19.254;2023-02-28T11:07:26;6.10;48.00
51215;DHT22;63849;47.546;19.254;2023-02-28T11:09:57;6.00;49.20
51215;DHT22;63849;47.546;19.254;2023-02-28T11:12:34;6.20;49.80
51215;DHT22;63849;47.546;19.254;2023-02-28T11:15:04;6.00;49.60
51215;DHT22;63849;47.546;19.254;2023-02-28T11:17:32;6.30;49.10
51215;DHT22;63849;47.546;19.254;2023-02-28T11:20:04;6.30;48.80
51215;DHT22;63849;47.546;19.254;2023-02-28T11:22:37;5.80;50.90
51215;DHT22;63849;47.546;19.254;2023-02-28T11:25:20;6.10;51.80
51215;DHT22;63849;47.546;19.254;2023-02-28T11:27:49;5.90;52.20
51215;DHT22;63849;47.546;19.254;2023-02-28T11:30:29;6.10;50.40
51215;DHT22;63849;47.546;19.254;2023-02-28T11:32:54;6.20;50.90
51215;DHT22;63849;47.546;19.254;2023-02-28T11:35:33;6.60;51.20
51215;DHT22;63849;47.546;19.254;2023-02-28T11:38:01;6.50;50.40
51215;DHT22;63849;47.546;19.254;2023-02-28T11:43:30;6.50;50.70
51215;DHT22;63849;47.546;19.254;2023-02-28T11:46:23;6.30;51.20
51215;DHT22;63849;47.546;19.254;2023-02-28T11:49:21;6.50;50.50
51215;DHT22;63849;47.546;19.254;2023-02-28T11:52:01;6.30;50.90
51215;DHT22;63849;47.546;19.254;2023-02-28T12:00:00;5.80;52.00
51215;DHT22;63849;47.546;19.254;2023-02-28T12:11:04;6.20;50.70
51215;DHT22;63849;47.546;19.254;2023-02-28T12:27:05;7.10;49.30
51215;DHT22;63849;47.546;19.254;2023-02-28T12:29:53;6.80;49.50
51215;DHT22;63849;47.546;19.254;2023-02-28T12:32:32;6.80;49.60
51215;DHT22;63849;47.546;19.254;2023-02-28T12:35:13;7.10;49.40
51215;DHT22;63849;47.546;19.254;2023-02-28T12:40:27;6.50;49.60
51215;DHT22;63849;47.546;19.254;2023-02-28T12:43:01;6.70;50.80
51215;DHT22;63849;47.546;19.254;2023-02-28T12:45:53;6.40;50.10
51215;DHT22;63849;47.546;19.254;2023-02-28T12:48:24;6.80;51.10
51215;DHT22;63849;47.546;19.254;2023-02-28T12:50:51;6.90;49.90
51215;DHT22;63849;47.546;19.254;2023-02-28T12:53:30;6.80;49.50
51215;DHT22;63849;47.546;19.254;2023-02-28T12:56:22;6.60;50.60
51215;DHT22;63849;47.546;19.254;2023-02-28T13:08:10;6.30;51.40
51215;DHT22;63849;47.546;19.254;2023-02-28T13:10:54;6.10;51.40
51215;DHT22;63849;47.546;19.254;2023-02-28T13:13:26;6.10;51.60
51215;DHT22;63849;47.546;19.254;2023-02-28T13:16:09;6.00;51.60
51215;DHT22;63849;47.546;19.254;2023-02-28T13:18:43;6.10;51.40
51215;DHT22;63849;47.546;19.254;2023-02-28T13:21:23;5.90;52.00
51215;DHT22;63849;47.546;19.254;2023-02-28T13:39:50;5.90;51.60
51215;DHT22;63849;47.546;19.254;2023-02-28T13:47:48;5.70;53.20
51215;DHT22;63849;47.546;19.254;2023-02-28T13:50:24;5.80;52.50
51215;DHT22;63849;47.546;19.254;2023-02-28T13:55:46;5.50;53.10
51215;DHT22;63849;47.546;19.254;2023-02-28T14:04:16;5.50;53.60
51215;DHT22;63849;47.546;19.254;2023-02-28T14:06:55;5.40;54.30
51215;DHT22;63849;47.546;19.254;2023-02-28T14:09:30;5.50;54.20
51215;DHT22;63849;47.546;19.254;2023-02-28T14:11:57;5.50;54.60
51215;DHT22;63849;47.546;19.254;2023-02-28T14:17:06;5.60;54.10
51215;DHT22;63849;47.546;19.254;2023-02-28T14:19:37;5.60;54.40
51215;DHT22;63849;47.546;19.254;2023-02-28T14:22:13;5.70;54.10
51215;DHT22;63849;47.546;19.254;2023-02-28T14:27:49;5.80;54.40
51215;DHT22;63849;47.546;19.254;2023-02-28T14:38:24;5.70;54.40
51215;DHT22;63849;47.546;19.254;2023-02-28T14:40:52;5.70;54.80
51215;DHT22;63849;47.546;19.254;2023-02-28T14:43:27;5.60;55.30
51215;DHT22;63849;47.546;19.254;2023-02-28T14:45:56;5.60;55.20
51215;DHT22;63849;47.546;19.254;2023-02-28T14:48:23;5.60;55.30
51215;DHT22;63849;47.546;19.254;2023-02-28T14:50:58;5.50;55.50
51215;DHT22;63849;47.546;19.254;2023-02-28T14:53:30;5.40;55.50
51215;DHT22;63849;47.546;19.254;2023-02-28T14:56:00;5.30;56.10
51215;DHT22;63849;47.546;19.254;2023-02-28T14:58:28;5.40;56.20
51215;DHT22;63849;47.546;19.254;2023-02-28T15:00:57;5.40;55.70
51215;DHT22;63849;47.546;19.254;2023-02-28T15:03:32;5.30;56.30
51215;DHT22;63849;47.546;19.254;2023-02-28T15:06:15;5.30;56.40
51215;DHT22;63849;47.546;19.254;2023-02-28T15:08:44;5.10;56.60
51215;DHT22;63849;47.546;19.254;2023-02-28T15:11:20;5.30;56.40
51215;DHT22;63849;47.546;19.254;2023-02-28T15:13:48;5.30;56.60
51215;DHT22;63849;47.546;19.254;2023-02-28T15:16:17;5.30;56.80
51215;DHT22;63849;47.546;19.254;2023-02-28T15:18:55;5.20;56.70
51215;DHT22;63849;47.546;19.254;2023-02-28T15:21:29;5.10;56.80
51215;DHT22;63849;47.546;19.254;2023-02-28T15:24:04;5.10;57.30
51215;DHT22;63849;47.546;19.254;2023-02-28T15:26:38;5.00;57.60
51215;DHT22;63849;47.546;19.254;2023-02-28T15:29:15;5.00;57.80
51215;DHT22;63849;47.546;19.254;2023-02-28T15:34:20;4.80;58.20
51215;DHT22;63849;47.546;19.254;2023-02-28T15:36:47;5.00;58.30
51215;DHT22;63849;47.546;19.254;2023-02-28T15:39:25;4.90;58.50
51215;DHT22;63849;47.546;19.254;2023-02-28T15:41:52;5.00;58.60
51215;DHT22;63849;47.546;19.254;2023-02-28T15:44:35;5.00;58.70
51215;DHT22;63849;47.546;19.254;2023-02-28T15:47:06;4.80;58.60
51215;DHT22;63849;47.546;19.254;2023-02-28T15:50:02;4.80;58.60
51215;DHT22;63849;47.546;19.254;2023-02-28T15:54:58;4.80;58.90
51215;DHT22;63849;47.546;19.254;2023-02-28T15:57:27;4.80;59.30
51215;DHT22;63849;47.546;19.254;2023-02-28T15:59:59;4.70;59.60
51215;DHT22;63849;47.546;19.254;2023-02-28T16:02:34;4.80;59.30
51215;DHT22;63849;47.546;19.254;2023-02-28T16:07:38;4.80;59.70
51215;DHT22;63849;47.546;19.254;2023-02-28T16:10:05;4.70;60.10
51215;DHT22;63849;47.546;19.254;2023-02-28T16:12:33;4.50;60.50
51215;DHT22;63849;47.546;19.254;2023-02-28T16:15:02;4.70;60.40
51215;DHT22;63849;47.546;19.254;2023-02-28T16:17:34;4.70;60.70
51215;DHT22;63849;47.546;19.254;2023-02-28T16:20:00;4.80;60.60
51215;DHT22;63849;47.546;19.254;2023-02-28T16:22:26;4.50;61.00
51215;DHT22;63849;47.546;19.254;2023-02-28T16:24:52;4.60;61.10
51215;DHT22;63849;47.546;19.254;2023-02-28T16:27:27;4.60;61.30
51215;DHT22;63849;47.546;19.254;2023-02-28T16:29:54;4.60;61.40
51215;DHT22;63849;47.546;19.254;2023-02-28T16:32:20;4.40;61.80
51215;DHT22;63849;47.546;19.254;2023-02-28T16:34:45;4.50;62.10
51215;DHT22;63849;47.546;19.254;2023-02-28T16:37:13;4.40;62.60
51215;DHT22;63849;47.546;19.254;2023-02-28T16:39:40;4.40;62.90
51215;DHT22;63849;47.546;19.254;2023-02-28T16:42:06;4.40;63.30
51215;DHT22;63849;47.546;19.254;2023-02-28T16:44:34;4.40;63.30
51215;DHT22;63849;47.546;19.254;2023-02-28T16:47:12;4.30;63.50
51215;DHT22;63849;47.546;19.254;2023-02-28T16:49:38;4.30;63.60
51215;DHT22;63849;47.546;19.254;2023-02-28T16:52:08;4.30;63.80
51215;DHT22;63849;47.546;19.254;2023-02-28T16:54:33;4.30;63.60
51215;DHT22;63849;47.546;19.254;2023-02-28T16:57:00;4.30;63.80
51215;DHT22;63849;47.546;19.254;2023-02-28T16:59:26;4.30;64.10
51215;DHT22;63849;47.546;19.254;2023-02-28T17:01:53;4.30;64.40
51215;DHT22;63849;47.546;19.254;2023-02-28T17:04:19;4.30;64.80
51215;DHT22;63849;47.546;19.254;2023-02-28T17:06:45;4.20;64.60
51215;DHT22;63849;47.546;19.254;2023-02-28T17:09:17;4.30;64.40
51215;DHT22;63849;47.546;19.254;2023-02-28T17:11:44;4.20;64.40
51215;DHT22;63849;47.546;19.254;2023-02-28T17:14:10;4.20;64.40
51215;DHT22;63849;47.546;19.254;2023-02-28T17:16:37;4.30;64.40
51215;DHT22;63849;47.546;19.254;2023-02-28T17:19:13;4.30;64.30
51215;DHT22;63849;47.546;19.254;2023-02-28T17:21:43;4.30;64.30
51215;DHT22;63849;47.546;19.254;2023-02-28T17:24:10;4.30;64.80
51215;DHT22;63849;47.546;19.254;2023-02-28T17:26:41;4.30;64.70
51215;DHT22;63849;47.546;19.254;2023-02-28T17:29:16;4.30;64.80
51215;DHT22;63849;47.546;19.254;2023-02-28T17:31:42;4.30;64.80
51215;DHT22;63849;47.546;19.254;2023-02-28T17:34:08;4.30;64.80
51215;DHT22;63849;47.546;19.254;2023-02-28T17:36:35;4.30;64.60
51215;DHT22;63849;47.546;19.254;2023-02-28T17:39:03;4.30;64.40
51215;DHT22;63849;47.546;19.254;2023-02-28T17:41:29;4.30;64.60
51215;DHT22;63849;47.546;19.254;2023-02-28T17:49:08;4.20;65.50
51215;DHT22;63849;47.546;19.254;2023-02-28T17:51:35;4.20;65.50
51215;DHT22;63849;47.546;19.254;2023-02-28T17:54:01;4.30;65.30
51215;DHT22;63849;47.546;19.254;2023-02-28T17:56:27;4.30;64.90
51215;DHT22;63849;47.546;19.254;2023-02-28T17:58:55;4.20;65.20
51215;DHT22;63849;47.546;19.254;2023-02-28T18:01:22;4.30;65.20
51215;DHT22;63849;47.546;19.254;2023-02-28T18:03:50;4.20;65.00
51215;DHT22;63849;47.546;19.254;2023-02-28T18:06:20;4.20;64.90
51215;DHT22;63849;47.546;19.254;2023-02-28T18:08:47;4.30;65.20
51215;DHT22;63849;47.546;19.254;2023-02-28T18:11:14;4.20;65.30
51215;DHT22;63849;47.546;19.254;2023-02-28T18:13:50;4.20;64.80
51215;DHT22;63849;47.546;19.254;2023-02-28T18:16:16;4.30;65.20